sensor_id;sensor_type;location;lat;lon;timestamp;temperature;humidity
31735;DHT22;18313;48.518;9.124;2023-08-07T00:02:26;12.20;99.90
31735;DHT22;18313;48.518;9.124;2023-08-07T00:04:54;12.30;99.90
31735;DHT22;18313;48.518;9.124;2023-08-07T00:07:21;12.30;99.90
31735;DHT22;18313;48.518;9.124;2023-08-07T00:09:48;12.30;99.90
31735;DHT22;18313;48.518;9.124;2023-08-07T00:12:15;12.30;99.90
31735;DHT22;18313;48.518;9.124;2023-08-07T00:14:42;12.30;99.90
31735;DHT22;18313;48.518;9.124;2023-08-07T00:17:09;12.30;99.90
31735;DHT22;18313;48.518;9.124;2023-08-07T00:19:36;12.30;99.90
31735;DHT22;18313;48.518;9.124;2023-08-07T00:22:03;12.30;99.90
31735;DHT22;18313;48.518;9.124;2023-08-07T00:24:30;12.30;99.90
31735;DHT22;18313;48.518;9.124;2023-08-07T00:26:58;12.30;99.90
31735;DHT22;18313;48.518;9.124;2023-08-07T00:29:25;12.30;99.90
31735;DHT22;18313;48.518;9.124;2023-08-07T00:31:52;12.40;99.90
31735;DHT22;18313;48.518;9.124;2023-08-07T00:34:19;12.30;99.90
31735;DHT22;18313;48.518;9.124;2023-08-07T00:36:46;12.30;99.90
31735;DHT22;18313;48.518;9.124;2023-08-07T00:39:13;12.20;99.90
31735;DHT22;18313;48.518;9.124;2023-08-07T00:41:40;12.20;99.90
31735;DHT22;18313;48.518;9.124;2023-08-07T00:44:07;12.30;99.90
31735;DHT22;18313;48.518;9.124;2023-08-07T00:46:34;12.20;99.90
31735;DHT22;18313;48.518;9.124;2023-08-07T00:49:02;12.20;99.90
31735;DHT22;18313;48.518;9.124;2023-08-07T00:51:30;12.20;99.90
31735;DHT22;18313;48.518;9.124;2023-08-07T00:53:58;12.20;99.90
31735;DHT22;18313;48.518;9.124;2023-08-07T00:56:27;12.20;99.90
31735;DHT22;18313;48.518;9.124;2023-08-07T00:58:54;12.20;99.90
31735;DHT22;18313;48.518;9.124;2023-08-07T01:01:21;12.20;99.90
31735;DHT22;18313;48.518;9.124;2023-08-07T01:03:49;12.20;99.90
31735;DHT22;18313;48.518;9.124;2023-08-07T01:06:17;12.10;99.90
31735;DHT22;18313;48.518;9.124;2023-08-07T01:08:45;12.20;99.90
31735;DHT22;18313;48.518;9.124;2023-08-07T01:11:36;12.10;99.90
31735;DHT22;18313;48.518;9.124;2023-08-07T01:17:00;12.20;99.90
31735;DHT22;18313;48.518;9.124;2023-08-07T01:19:29;12.20;99.90
31735;DHT22;18313;48.518;9.124;2023-08-07T01:24:36;12.20;99.90
31735;DHT22;18313;48.518;9.124;2023-08-07T01:29:57;12.10;99.90
31735;DHT22;18313;48.518;9.124;2023-08-07T01:32:47;12.10;99.90
31735;DHT22;18313;48.518;9.124;2023-08-07T01:35:17;12.10;99.90
31735;DHT22;18313;48.518;9.124;2023-08-07T01:37:48;12.10;99.90
31735;DHT22;18313;48.518;9.124;2023-08-07T01:40:17;12.10;99.90
31735;DHT22;18313;48.518;9.124;2023-08-07T01:42:45;12.00;99.90
31735;DHT22;18313;48.518;9.124;2023-08-07T01:45:13;12.00;99.90
31735;DHT22;18313;48.518;9.124;2023-08-07T01:47:40;12.00;99.90
31735;DHT22;18313;48.518;9.124;2023-08-07T01:50:08;12.00;99.90
31735;DHT22;18313;48.518;9.124;2023-08-07T01:52:35;12.00;99.90
31735;DHT22;18313;48.518;9.124;2023-08-07T01:55:02;11.90;99.90
31735;DHT22;18313;48.518;9.124;2023-08-07T01:57:29;11.90;99.90
31735;DHT22;18313;48.518;9.124;2023-08-07T01:59:58;11.90;99.90
31735;DHT22;18313;48.518;9.124;2023-08-07T02:02:25;11.90;99.90
31735;DHT22;18313;48.518;9.124;2023-08-07T02:04:53;11.90;99.90
31735;DHT22;18313;48.518;9.124;2023-08-07T02:07:20;11.80;99.90
31735;DHT22;18313;48.518;9.124;2023-08-07T02:09:47;11.80;99.90
31735;DHT22;18313;48.518;9.124;2023-08-07T02:12:15;11.80;99.90
31735;DHT22;18313;48.518;9.124;2023-08-07T02:14:42;11.80;99.90
31735;DHT22;18313;48.518;9.124;2023-08-07T02:17:09;11.80;99.90
31735;DHT22;18313;48.518;9.124;2023-08-07T02:19:36;11.80;99.90
31735;DHT22;18313;48.518;9.124;2023-08-07T02:22:04;11.90;99.90
31735;DHT22;18313;48.518;9.124;2023-08-07T02:24:32;11.80;99.90
31735;DHT22;18313;48.518;9.124;2023-08-07T02:26:59;11.80;99.90
31735;DHT22;18313;48.518;9.124;2023-08-07T02:29:26;11.80;99.90
31735;DHT22;18313;48.518;9.124;2023-08-07T02:31:53;11.80;99.90
31735;DHT22;18313;48.518;9.124;2023-08-07T02:34:21;11.80;99.90
31735;DHT22;18313;48.518;9.124;2023-08-07T02:36:48;11.80;99.90
31735;DHT22;18313;48.518;9.124;2023-08-07T02:39:15;11.80;99.90
31735;DHT22;18313;48.518;9.124;2023-08-07T02:41:42;11.80;99.90
31735;DHT22;18313;48.518;9.124;2023-08-07T02:44:10;11.80;99.90
31735;DHT22;18313;48.518;9.124;2023-08-07T02:46:38;11.80;99.90
31735;DHT22;18313;48.518;9.124;2023-08-07T02:49:05;11.80;99.90
31735;DHT22;18313;48.518;9.124;2023-08-07T02:51:32;11.90;99.90
31735;DHT22;18313;48.518;9.124;2023-08-07T02:53:59;11.80;99.90
31735;DHT22;18313;48.518;9.124;2023-08-07T02:56:26;11.80;99.90
31735;DHT22;18313;48.518;9.124;2023-08-07T02:58:54;11.80;99.90
31735;DHT22;18313;48.518;9.124;2023-08-07T03:01:21;11.80;99.90
31735;DHT22;18313;48.518;9.124;2023-08-07T03:03:48;11.80;99.90
31735;DHT22;18313;48.518;9.124;2023-08-07T03:06:16;11.80;99.90
31735;DHT22;18313;48.518;9.124;2023-08-07T03:08:43;11.90;99.90
31735;DHT22;18313;48.518;9.124;2023-08-07T03:11:10;11.90;99.90
31735;DHT22;18313;48.518;9.124;2023-08-07T03:13:38;11.90;99.90
31735;DHT22;18313;48.518;9.124;2023-08-07T03:16:05;11.90;99.90
31735;DHT22;18313;48.518;9.124;2023-08-07T03:18:34;11.90;99.90
31735;DHT22;18313;48.518;9.124;2023-08-07T03:21:01;11.90;99.90
31735;DHT22;18313;48.518;9.124;2023-08-07T03:23:29;11.90;99.90
31735;DHT22;18313;48.518;9.124;2023-08-07T03:26:11;11.80;99.90
31735;DHT22;18313;48.518;9.124;2023-08-07T03:28:45;11.80;99.90
31735;DHT22;18313;48.518;9.124;2023-08-07T03:31:16;11.80;99.90
31735;DHT22;18313;48.518;9.124;2023-08-07T03:33:43;11.80;99.90
31735;DHT22;18313;48.518;9.124;2023-08-07T03:36:11;11.80;99.90
31735;DHT22;18313;48.518;9.124;2023-08-07T03:38:38;11.70;99.90
31735;DHT22;18313;48.518;9.124;2023-08-07T03:41:05;11.70;99.90
31735;DHT22;18313;48.518;9.124;2023-08-07T03:43:32;11.60;99.90
31735;DHT22;18313;48.518;9.124;2023-08-07T03:46:00;11.60;99.90
31735;DHT22;18313;48.518;9.124;2023-08-07T03:48:30;11.50;99.90
31735;DHT22;18313;48.518;9.124;2023-08-07T03:51:07;11.40;99.90
31735;DHT22;18313;48.518;9.124;2023-08-07T03:53:41;11.50;99.90
31735;DHT22;18313;48.518;9.124;2023-08-07T03:56:09;11.40;99.90
31735;DHT22;18313;48.518;9.124;2023-08-07T03:58:36;11.40;99.90
31735;DHT22;18313;48.518;9.124;2023-08-07T04:01:04;11.40;99.90
31735;DHT22;18313;48.518;9.124;2023-08-07T04:03:31;11.40;99.90
31735;DHT22;18313;48.518;9.124;2023-08-07T04:05:59;11.30;99.90
31735;DHT22;18313;48.518;9.124;2023-08-07T04:08:28;11.30;99.90
31735;DHT22;18313;48.518;9.124;2023-08-07T04:11:06;11.30;99.90
31735;DHT22;18313;48.518;9.124;2023-08-07T04:13:34;11.30;99.90
31735;DHT22;18313;48.518;9.124;2023-08-07T04:16:01;11.40;99.90
31735;DHT22;18313;48.518;9.124;2023-08-07T04:18:32;11.20;99.90
31735;DHT22;18313;48.518;9.124;2023-08-07T04:20:59;11.20;99.90
31735;DHT22;18313;48.518;9.124;2023-08-07T04:23:27;11.20;99.90
31735;DHT22;18313;48.518;9.124;2023-08-07T04:25:54;11.10;99.90
31735;DHT22;18313;48.518;9.124;2023-08-07T04:28:22;11.00;99.90
31735;DHT22;18313;48.518;9.124;2023-08-07T04:30:50;11.00;99.90
31735;DHT22;18313;48.518;9.124;2023-08-07T04:33:21;11.00;99.90
31735;DHT22;18313;48.518;9.124;2023-08-07T04:35:48;10.90;99.90
31735;DHT22;18313;48.518;9.124;2023-08-07T04:38:15;10.90;99.90
31735;DHT22;18313;48.518;9.124;2023-08-07T04:40:47;10.90;99.90
31735;DHT22;18313;48.518;9.124;2023-08-07T04:43:15;11.00;99.90
31735;DHT22;18313;48.518;9.124;2023-08-07T04:45:42;10.90;99.90
31735;DHT22;18313;48.518;9.124;2023-08-07T04:48:13;11.00;99.90
31735;DHT22;18313;48.518;9.124;2023-08-07T04:50:41;10.90;99.90
31735;DHT22;18313;48.518;9.124;2023-08-07T04:53:08;11.00;99.90
31735;DHT22;18313;48.518;9.124;2023-08-07T04:55:35;11.00;99.90
31735;DHT22;18313;48.518;9.124;2023-08-07T04:58:03;10.90;99.90
31735;DHT22;18313;48.518;9.124;2023-08-07T05:00:30;11.00;99.90
31735;DHT22;18313;48.518;9.124;2023-08-07T05:02:58;11.10;99.90
31735;DHT22;18313;48.518;9.124;2023-08-07T05:05:25;11.00;99.90
31735;DHT22;18313;48.518;9.124;2023-08-07T05:07:54;11.10;99.90
31735;DHT22;18313;48.518;9.124;2023-08-07T05:10:22;11.10;99.90
31735;DHT22;18313;48.518;9.124;2023-08-07T05:12:49;11.10;99.90
31735;DHT22;18313;48.518;9.124;2023-08-07T05:15:23;11.20;99.90
31735;DHT22;18313;48.518;9.124;2023-08-07T05:17:51;11.20;99.90
31735;DHT22;18313;48.518;9.124;2023-08-07T05:20:18;11.20;99.90
31735;DHT22;18313;48.518;9.124;2023-08-07T05:22:46;11.30;99.90
31735;DHT22;18313;48.518;9.124;2023-08-07T05:25:14;11.30;99.90
31735;DHT22;18313;48.518;9.124;2023-08-07T05:27:44;11.40;99.90
31735;DHT22;18313;48.518;9.124;2023-08-07T05:30:12;11.40;99.90
31735;DHT22;18313;48.518;9.124;2023-08-07T05:32:40;11.50;99.90
31735;DHT22;18313;48.518;9.124;2023-08-07T05:35:08;11.60;99.90
31735;DHT22;18313;48.518;9.124;2023-08-07T05:37:35;11.80;99.90
31735;DHT22;18313;48.518;9.124;2023-08-07T05:40:02;12.10;99.90
31735;DHT22;18313;48.518;9.124;2023-08-07T05:42:30;12.20;99.90
31735;DHT22;18313;48.518;9.124;2023-08-07T05:44:58;12.30;99.90
31735;DHT22;18313;48.518;9.124;2023-08-07T05:47:25;12.30;99.90
31735;DHT22;18313;48.518;9.124;2023-08-07T05:49:52;12.30;99.90
31735;DHT22;18313;48.518;9.124;2023-08-07T05:52:19;12.40;99.90
31735;DHT22;18313;48.518;9.124;2023-08-07T05:54:47;12.40;99.90
31735;DHT22;18313;48.518;9.124;2023-08-07T05:57:14;12.40;99.90
31735;DHT22;18313;48.518;9.124;2023-08-07T05:59:41;12.40;99.90
31735;DHT22;18313;48.518;9.124;2023-08-07T06:02:09;12.50;99.90
31735;DHT22;18313;48.518;9.124;2023-08-07T06:04:38;12.50;99.90
31735;DHT22;18313;48.518;9.124;2023-08-07T06:07:05;12.50;99.90
31735;DHT22;18313;48.518;9.124;2023-08-07T06:09:35;12.60;99.90
31735;DHT22;18313;48.518;9.124;2023-08-07T06:12:02;12.60;99.90
31735;DHT22;18313;48.518;9.124;2023-08-07T06:14:29;12.60;99.90
31735;DHT22;18313;48.518;9.124;2023-08-07T06:16:57;12.60;99.90
31735;DHT22;18313;48.518;9.124;2023-08-07T06:19:25;12.60;99.90
31735;DHT22;18313;48.518;9.124;2023-08-07T06:21:58;12.60;99.90
31735;DHT22;18313;48.518;9.124;2023-08-07T06:24:26;12.60;99.90
31735;DHT22;18313;48.518;9.124;2023-08-07T06:26:54;12.80;99.90
31735;DHT22;18313;48.518;9.124;2023-08-07T06:29:21;12.80;99.90
31735;DHT22;18313;48.518;9.124;2023-08-07T06:31:48;13.00;99.90
31735;DHT22;18313;48.518;9.124;2023-08-07T06:34:15;12.90;99.90
31735;DHT22;18313;48.518;9.124;2023-08-07T06:36:42;12.90;99.90
31735;DHT22;18313;48.518;9.124;2023-08-07T06:39:09;12.90;99.90
31735;DHT22;18313;48.518;9.124;2023-08-07T06:41:37;13.00;99.90
31735;DHT22;18313;48.518;9.124;2023-08-07T06:44:04;13.00;99.90
31735;DHT22;18313;48.518;9.124;2023-08-07T06:46:32;13.10;99.90
31735;DHT22;18313;48.518;9.124;2023-08-07T06:48:59;13.10;99.90
31735;DHT22;18313;48.518;9.124;2023-08-07T06:51:26;13.10;99.90
31735;DHT22;18313;48.518;9.124;2023-08-07T06:53:53;13.20;99.90
31735;DHT22;18313;48.518;9.124;2023-08-07T06:56:20;13.20;99.90
31735;DHT22;18313;48.518;9.124;2023-08-07T06:58:48;13.30;99.90
31735;DHT22;18313;48.518;9.124;2023-08-07T07:01:15;13.40;99.90
31735;DHT22;18313;48.518;9.124;2023-08-07T07:03:42;13.50;99.90
31735;DHT22;18313;48.518;9.124;2023-08-07T07:06:12;13.70;99.90
31735;DHT22;18313;48.518;9.124;2023-08-07T07:08:40;13.60;99.90
31735;DHT22;18313;48.518;9.124;2023-08-07T07:11:07;13.70;99.90
31735;DHT22;18313;48.518;9.124;2023-08-07T07:13:35;13.80;99.90
31735;DHT22;18313;48.518;9.124;2023-08-07T07:16:02;13.80;99.90
31735;DHT22;18313;48.518;9.124;2023-08-07T07:18:30;13.90;99.90
31735;DHT22;18313;48.518;9.124;2023-08-07T07:20:58;14.10;99.90
31735;DHT22;18313;48.518;9.124;2023-08-07T07:23:26;14.20;99.90
31735;DHT22;18313;48.518;9.124;2023-08-07T07:25:53;14.30;99.90
31735;DHT22;18313;48.518;9.124;2023-08-07T07:28:21;14.50;99.90
31735;DHT22;18313;48.518;9.124;2023-08-07T07:30:49;14.60;99.90
31735;DHT22;18313;48.518;9.124;2023-08-07T07:33:16;14.70;99.90
31735;DHT22;18313;48.518;9.124;2023-08-07T07:35:44;14.80;99.90
31735;DHT22;18313;48.518;9.124;2023-08-07T07:38:11;14.80;99.90
31735;DHT22;18313;48.518;9.124;2023-08-07T07:40:38;14.80;99.90
31735;DHT22;18313;48.518;9.124;2023-08-07T07:43:05;14.70;99.90
31735;DHT22;18313;48.518;9.124;2023-08-07T07:45:33;14.80;99.90
31735;DHT22;18313;48.518;9.124;2023-08-07T07:48:03;14.80;99.90
31735;DHT22;18313;48.518;9.124;2023-08-07T07:50:31;15.00;99.90
31735;DHT22;18313;48.518;9.124;2023-08-07T07:52:58;15.10;99.90
31735;DHT22;18313;48.518;9.124;2023-08-07T07:55:25;15.20;99.90
31735;DHT22;18313;48.518;9.124;2023-08-07T07:57:54;15.40;99.90
31735;DHT22;18313;48.518;9.124;2023-08-07T08:00:22;15.50;99.90
31735;DHT22;18313;48.518;9.124;2023-08-07T08:02:53;15.70;99.90
31735;DHT22;18313;48.518;9.124;2023-08-07T08:05:21;15.80;99.90
31735;DHT22;18313;48.518;9.124;2023-08-07T08:07:49;15.90;99.90
31735;DHT22;18313;48.518;9.124;2023-08-07T08:10:16;16.00;99.90
31735;DHT22;18313;48.518;9.124;2023-08-07T08:12:43;16.10;99.90
31735;DHT22;18313;48.518;9.124;2023-08-07T08:15:11;16.10;99.90
31735;DHT22;18313;48.518;9.124;2023-08-07T08:17:38;16.20;99.90
31735;DHT22;18313;48.518;9.124;2023-08-07T08:20:07;16.20;99.90
31735;DHT22;18313;48.518;9.124;2023-08-07T08:22:35;16.30;99.90
31735;DHT22;18313;48.518;9.124;2023-08-07T08:25:02;16.40;99.90
31735;DHT22;18313;48.518;9.124;2023-08-07T08:27:32;16.60;99.90
31735;DHT22;18313;48.518;9.124;2023-08-07T08:29:59;16.80;99.90
31735;DHT22;18313;48.518;9.124;2023-08-07T08:32:26;17.10;99.90
31735;DHT22;18313;48.518;9.124;2023-08-07T08:34:53;17.00;99.90
31735;DHT22;18313;48.518;9.124;2023-08-07T08:37:21;17.20;99.90
31735;DHT22;18313;48.518;9.124;2023-08-07T08:39:48;17.20;99.90
31735;DHT22;18313;48.518;9.124;2023-08-07T08:42:16;17.20;99.90
31735;DHT22;18313;48.518;9.124;2023-08-07T08:44:51;17.20;99.90
31735;DHT22;18313;48.518;9.124;2023-08-07T08:47:20;17.20;99.90
31735;DHT22;18313;48.518;9.124;2023-08-07T08:50:11;17.40;99.90
31735;DHT22;18313;48.518;9.124;2023-08-07T08:52:38;17.40;99.30
31735;DHT22;18313;48.518;9.124;2023-08-07T08:55:05;17.30;98.90
31735;DHT22;18313;48.518;9.124;2023-08-07T08:57:33;17.20;99.30
31735;DHT22;18313;48.518;9.124;2023-08-07T09:00:01;17.30;99.70
31735;DHT22;18313;48.518;9.124;2023-08-07T09:02:34;17.60;99.30
31735;DHT22;18313;48.518;9.124;2023-08-07T09:05:02;17.40;99.60
31735;DHT22;18313;48.518;9.124;2023-08-07T09:07:29;17.60;98.80
31735;DHT22;18313;48.518;9.124;2023-08-07T09:09:57;17.70;98.50
31735;DHT22;18313;48.518;9.124;2023-08-07T09:12:26;17.90;98.40
31735;DHT22;18313;48.518;9.124;2023-08-07T09:15:01;18.10;98.60
31735;DHT22;18313;48.518;9.124;2023-08-07T09:17:39;17.90;98.30
31735;DHT22;18313;48.518;9.124;2023-08-07T09:20:07;18.10;99.20
31735;DHT22;18313;48.518;9.124;2023-08-07T09:22:41;18.30;98.70
31735;DHT22;18313;48.518;9.124;2023-08-07T09:25:09;18.30;97.80
31735;DHT22;18313;48.518;9.124;2023-08-07T09:27:40;18.20;97.30
31735;DHT22;18313;48.518;9.124;2023-08-07T09:30:07;18.30;97.50
31735;DHT22;18313;48.518;9.124;2023-08-07T09:32:39;18.30;97.20
31735;DHT22;18313;48.518;9.124;2023-08-07T09:35:08;18.40;97.70
31735;DHT22;18313;48.518;9.124;2023-08-07T09:37:37;18.30;97.20
31735;DHT22;18313;48.518;9.124;2023-08-07T09:40:06;18.20;97.80
31735;DHT22;18313;48.518;9.124;2023-08-07T09:42:35;18.40;97.10
31735;DHT22;18313;48.518;9.124;2023-08-07T09:45:25;18.60;97.20
31735;DHT22;18313;48.518;9.124;2023-08-07T09:48:03;18.70;97.40
31735;DHT22;18313;48.518;9.124;2023-08-07T09:50:31;19.00;96.60
31735;DHT22;18313;48.518;9.124;2023-08-07T09:52:59;18.70;96.20
31735;DHT22;18313;48.518;9.124;2023-08-07T09:55:27;18.60;96.50
31735;DHT22;18313;48.518;9.124;2023-08-07T09:57:54;18.80;96.60
31735;DHT22;18313;48.518;9.124;2023-08-07T10:02:12;18.90;96.30
31735;DHT22;18313;48.518;9.124;2023-08-07T10:04:39;19.00;96.60
31735;DHT22;18313;48.518;9.124;2023-08-07T10:07:08;19.30;95.80
31735;DHT22;18313;48.518;9.124;2023-08-07T10:09:37;19.40;95.90
31735;DHT22;18313;48.518;9.124;2023-08-07T10:12:06;18.90;95.50
31735;DHT22;18313;48.518;9.124;2023-08-07T10:14:33;18.80;95.70
31735;DHT22;18313;48.518;9.124;2023-08-07T10:17:01;18.80;96.40
31735;DHT22;18313;48.518;9.124;2023-08-07T10:19:29;19.00;97.40
31735;DHT22;18313;48.518;9.124;2023-08-07T10:21:57;19.30;96.70
31735;DHT22;18313;48.518;9.124;2023-08-07T10:24:25;19.50;96.40
31735;DHT22;18313;48.518;9.124;2023-08-07T10:26:54;19.60;96.00
31735;DHT22;18313;48.518;9.124;2023-08-07T10:29:22;19.70;95.40
31735;DHT22;18313;48.518;9.124;2023-08-07T10:31:52;19.80;95.00
31735;DHT22;18313;48.518;9.124;2023-08-07T10:34:22;19.70;94.80
31735;DHT22;18313;48.518;9.124;2023-08-07T10:36:49;19.70;94.20
31735;DHT22;18313;48.518;9.124;2023-08-07T10:39:17;19.80;94.90
31735;DHT22;18313;48.518;9.124;2023-08-07T10:41:48;19.80;95.50
31735;DHT22;18313;48.518;9.124;2023-08-07T10:44:22;20.10;95.50
31735;DHT22;18313;48.518;9.124;2023-08-07T10:46:54;20.50;93.80
31735;DHT22;18313;48.518;9.124;2023-08-07T10:49:39;20.50;94.10
31735;DHT22;18313;48.518;9.124;2023-08-07T10:52:14;20.30;93.90
31735;DHT22;18313;48.518;9.124;2023-08-07T10:54:46;20.00;93.30
31735;DHT22;18313;48.518;9.124;2023-08-07T10:57:14;19.80;93.80
31735;DHT22;18313;48.518;9.124;2023-08-07T11:00:02;19.80;94.70
31735;DHT22;18313;48.518;9.124;2023-08-07T11:02:37;20.20;94.30
31735;DHT22;18313;48.518;9.124;2023-08-07T11:05:08;20.60;95.10
31735;DHT22;18313;48.518;9.124;2023-08-07T11:07:40;20.60;93.10
31735;DHT22;18313;48.518;9.124;2023-08-07T11:10:07;20.10;93.40
31735;DHT22;18313;48.518;9.124;2023-08-07T11:12:35;19.90;94.40
31735;DHT22;18313;48.518;9.124;2023-08-07T11:15:03;19.80;94.10
31735;DHT22;18313;48.518;9.124;2023-08-07T11:17:30;20.00;93.10
31735;DHT22;18313;48.518;9.124;2023-08-07T11:19:59;20.10;92.90
31735;DHT22;18313;48.518;9.124;2023-08-07T11:22:26;20.10;93.70
31735;DHT22;18313;48.518;9.124;2023-08-07T11:24:53;20.20;93.40
31735;DHT22;18313;48.518;9.124;2023-08-07T11:27:21;20.10;93.60
31735;DHT22;18313;48.518;9.124;2023-08-07T11:29:50;20.10;93.60
31735;DHT22;18313;48.518;9.124;2023-08-07T11:32:19;20.00;94.60
31735;DHT22;18313;48.518;9.124;2023-08-07T11:34:49;20.10;95.00
31735;DHT22;18313;48.518;9.124;2023-08-07T11:37:17;20.00;94.40
31735;DHT22;18313;48.518;9.124;2023-08-07T11:39:44;20.00;93.90
31735;DHT22;18313;48.518;9.124;2023-08-07T11:42:13;19.80;93.00
31735;DHT22;18313;48.518;9.124;2023-08-07T11:44:41;19.70;93.40
31735;DHT22;18313;48.518;9.124;2023-08-07T11:47:10;19.20;94.00
31735;DHT22;18313;48.518;9.124;2023-08-07T11:49:37;19.00;94.20
31735;DHT22;18313;48.518;9.124;2023-08-07T11:52:05;18.90;94.50
31735;DHT22;18313;48.518;9.124;2023-08-07T11:54:33;18.80;95.20
31735;DHT22;18313;48.518;9.124;2023-08-07T11:57:00;19.00;95.20
31735;DHT22;18313;48.518;9.124;2023-08-07T11:59:27;19.00;95.30
31735;DHT22;18313;48.518;9.124;2023-08-07T12:01:54;19.10;94.90
31735;DHT22;18313;48.518;9.124;2023-08-07T12:04:22;19.20;94.60
31735;DHT22;18313;48.518;9.124;2023-08-07T12:06:56;19.10;94.10
31735;DHT22;18313;48.518;9.124;2023-08-07T12:09:25;18.80;95.20
31735;DHT22;18313;48.518;9.124;2023-08-07T12:11:58;18.70;94.30
31735;DHT22;18313;48.518;9.124;2023-08-07T12:14:30;18.60;94.70
31735;DHT22;18313;48.518;9.124;2023-08-07T12:16:57;18.60;95.60
31735;DHT22;18313;48.518;9.124;2023-08-07T12:19:35;18.50;95.10
31735;DHT22;18313;48.518;9.124;2023-08-07T12:22:06;18.30;95.60
31735;DHT22;18313;48.518;9.124;2023-08-07T12:24:35;18.10;95.40
31735;DHT22;18313;48.518;9.124;2023-08-07T12:27:04;18.00;95.80
31735;DHT22;18313;48.518;9.124;2023-08-07T12:29:32;17.70;96.00
31735;DHT22;18313;48.518;9.124;2023-08-07T12:31:59;17.70;96.60
31735;DHT22;18313;48.518;9.124;2023-08-07T12:34:28;17.60;96.40
31735;DHT22;18313;48.518;9.124;2023-08-07T12:36:58;17.60;96.60
31735;DHT22;18313;48.518;9.124;2023-08-07T12:39:26;17.70;96.60
31735;DHT22;18313;48.518;9.124;2023-08-07T12:41:56;17.80;96.10
31735;DHT22;18313;48.518;9.124;2023-08-07T12:44:27;17.90;96.40
31735;DHT22;18313;48.518;9.124;2023-08-07T12:46:55;18.10;96.20
31735;DHT22;18313;48.518;9.124;2023-08-07T12:49:23;18.20;96.10
31735;DHT22;18313;48.518;9.124;2023-08-07T12:51:50;18.40;96.10
31735;DHT22;18313;48.518;9.124;2023-08-07T12:54:18;18.60;96.00
31735;DHT22;18313;48.518;9.124;2023-08-07T12:56:46;18.50;96.00
31735;DHT22;18313;48.518;9.124;2023-08-07T12:59:13;18.40;95.70
31735;DHT22;18313;48.518;9.124;2023-08-07T13:01:40;18.10;96.10
31735;DHT22;18313;48.518;9.124;2023-08-07T13:04:07;18.10;96.10
31735;DHT22;18313;48.518;9.124;2023-08-07T13:06:35;18.10;96.60
31735;DHT22;18313;48.518;9.124;2023-08-07T13:09:03;18.10;96.20
31735;DHT22;18313;48.518;9.124;2023-08-07T13:11:31;17.90;96.90
31735;DHT22;18313;48.518;9.124;2023-08-07T13:13:58;17.80;97.20
31735;DHT22;18313;48.518;9.124;2023-08-07T13:16:26;17.70;97.20
31735;DHT22;18313;48.518;9.124;2023-08-07T13:18:53;17.60;97.10
31735;DHT22;18313;48.518;9.124;2023-08-07T13:21:20;17.60;97.70
31735;DHT22;18313;48.518;9.124;2023-08-07T13:23:47;17.70;97.30
31735;DHT22;18313;48.518;9.124;2023-08-07T13:26:16;18.10;97.10
31735;DHT22;18313;48.518;9.124;2023-08-07T13:28:44;18.50;97.60
31735;DHT22;18313;48.518;9.124;2023-08-07T13:31:11;18.60;97.30
31735;DHT22;18313;48.518;9.124;2023-08-07T13:33:39;18.70;97.10
31735;DHT22;18313;48.518;9.124;2023-08-07T13:36:06;18.60;97.50
31735;DHT22;18313;48.518;9.124;2023-08-07T13:38:34;18.70;97.60
31735;DHT22;18313;48.518;9.124;2023-08-07T13:41:01;18.70;97.20
31735;DHT22;18313;48.518;9.124;2023-08-07T13:43:29;18.60;96.80
31735;DHT22;18313;48.518;9.124;2023-08-07T13:45:56;18.30;96.90
31735;DHT22;18313;48.518;9.124;2023-08-07T13:48:23;18.10;97.40
31735;DHT22;18313;48.518;9.124;2023-08-07T13:50:53;17.90;97.20
31735;DHT22;18313;48.518;9.124;2023-08-07T13:53:21;17.80;97.30
31735;DHT22;18313;48.518;9.124;2023-08-07T13:55:50;17.90;97.10
31735;DHT22;18313;48.518;9.124;2023-08-07T13:58:17;17.90;97.20
31735;DHT22;18313;48.518;9.124;2023-08-07T14:00:45;18.10;97.10
31735;DHT22;18313;48.518;9.124;2023-08-07T14:03:12;18.30;96.50
31735;DHT22;18313;48.518;9.124;2023-08-07T14:05:40;18.60;97.00
31735;DHT22;18313;48.518;9.124;2023-08-07T14:08:08;19.00;97.00
31735;DHT22;18313;48.518;9.124;2023-08-07T14:10:38;19.70;95.90
31735;DHT22;18313;48.518;9.124;2023-08-07T14:13:05;20.20;95.00
31735;DHT22;18313;48.518;9.124;2023-08-07T14:15:32;20.60;96.30
31735;DHT22;18313;48.518;9.124;2023-08-07T14:18:00;21.00;94.70
31735;DHT22;18313;48.518;9.124;2023-08-07T14:20:27;21.40;94.80
31735;DHT22;18313;48.518;9.124;2023-08-07T14:22:54;21.60;93.30
31735;DHT22;18313;48.518;9.124;2023-08-07T14:25:38;21.50;93.50
31735;DHT22;18313;48.518;9.124;2023-08-07T14:28:05;21.10;94.00
31735;DHT22;18313;48.518;9.124;2023-08-07T14:30:35;21.00;94.40
31735;DHT22;18313;48.518;9.124;2023-08-07T14:33:02;21.10;93.60
31735;DHT22;18313;48.518;9.124;2023-08-07T14:35:29;21.10;93.70
31735;DHT22;18313;48.518;9.124;2023-08-07T14:37:57;21.00;92.70
31735;DHT22;18313;48.518;9.124;2023-08-07T14:40:24;21.00;93.20
31735;DHT22;18313;48.518;9.124;2023-08-07T14:42:52;20.80;93.10
31735;DHT22;18313;48.518;9.124;2023-08-07T14:45:19;20.70;93.20
31735;DHT22;18313;48.518;9.124;2023-08-07T14:47:48;20.50;93.00
31735;DHT22;18313;48.518;9.124;2023-08-07T14:50:15;20.30;93.00
31735;DHT22;18313;48.518;9.124;2023-08-07T14:52:43;20.30;92.90
31735;DHT22;18313;48.518;9.124;2023-08-07T14:55:10;20.00;93.70
31735;DHT22;18313;48.518;9.124;2023-08-07T14:57:37;19.80;93.70
31735;DHT22;18313;48.518;9.124;2023-08-07T15:00:05;19.60;94.10
31735;DHT22;18313;48.518;9.124;2023-08-07T15:02:32;19.40;94.40
31735;DHT22;18313;48.518;9.124;2023-08-07T15:05:00;19.30;94.50
31735;DHT22;18313;48.518;9.124;2023-08-07T15:07:27;19.30;94.80
31735;DHT22;18313;48.518;9.124;2023-08-07T15:09:54;19.20;95.30
31735;DHT22;18313;48.518;9.124;2023-08-07T15:12:22;19.10;95.40
31735;DHT22;18313;48.518;9.124;2023-08-07T15:14:49;18.90;95.60
31735;DHT22;18313;48.518;9.124;2023-08-07T15:17:16;18.80;95.40
31735;DHT22;18313;48.518;9.124;2023-08-07T15:19:44;18.70;96.00
31735;DHT22;18313;48.518;9.124;2023-08-07T15:22:12;18.80;95.60
31735;DHT22;18313;48.518;9.124;2023-08-07T15:24:39;18.80;95.90
31735;DHT22;18313;48.518;9.124;2023-08-07T15:27:07;18.80;95.90
31735;DHT22;18313;48.518;9.124;2023-08-07T15:29:34;18.90;96.20
31735;DHT22;18313;48.518;9.124;2023-08-07T15:32:02;19.00;96.00
31735;DHT22;18313;48.518;9.124;2023-08-07T15:34:29;19.20;96.20
31735;DHT22;18313;48.518;9.124;2023-08-07T15:36:56;19.20;95.40
31735;DHT22;18313;48.518;9.124;2023-08-07T15:39:25;19.10;95.00
31735;DHT22;18313;48.518;9.124;2023-08-07T15:41:52;19.10;95.20
31735;DHT22;18313;48.518;9.124;2023-08-07T15:44:20;19.50;95.10
31735;DHT22;18313;48.518;9.124;2023-08-07T15:46:47;20.00;95.00
31735;DHT22;18313;48.518;9.124;2023-08-07T15:49:14;20.60;93.70